createdAt,value
2023-03-13T00:01:25.571Z,4.57
2023-03-13T00:03:55.947Z,3.90
2023-03-13T00:06:25.825Z,3.97
2023-03-13T00:08:55.680Z,3.95
2023-03-13T00:11:24.235Z,3.23
2023-03-13T00:13:55.880Z,3.57
2023-03-13T00:16:25.437Z,3.30
2023-03-13T00:18:55.413Z,3.80
2023-03-13T00:21:26.268Z,2.90
2023-03-13T00:23:56.657Z,4.50
2023-03-13T00:26:27.810Z,4.70
2023-03-13T00:28:56.806Z,3.97
2023-03-13T00:31:27.550Z,3.40
2023-03-13T00:33:58.904Z,4.57
2023-03-13T00:36:28.999Z,3.90
2023-03-13T00:38:59.477Z,3.67
2023-03-13T00:41:30.909Z,3.47
2023-03-13T00:44:00.231Z,4.37
2023-03-13T00:46:30.022Z,3.80
2023-03-13T00:48:58.999Z,4.37
2023-03-13T00:51:28.608Z,5.13
2023-03-13T00:54:00.955Z,4.50
2023-03-13T00:56:30.161Z,4.40
2023-03-13T00:59:00.422Z,4.73
2023-03-13T01:01:31.469Z,5.13
2023-03-13T01:04:02.029Z,4.10
2023-03-13T01:06:34.296Z,5.10
2023-03-13T01:09:05.178Z,4.17
2023-03-13T01:11:36.430Z,4.80
2023-03-13T01:14:08.400Z,4.83
2023-03-13T01:16:38.047Z,5.00
2023-03-13T01:19:09.160Z,4.87
2023-03-13T01:21:38.954Z,4.63
2023-03-13T01:24:09.596Z,5.60
2023-03-13T01:26:38.378Z,4.47
2023-03-13T01:29:06.921Z,3.90
2023-03-13T01:31:37.437Z,3.80
2023-03-13T01:34:09.676Z,3.97
2023-03-13T01:36:38.920Z,3.60
2023-03-13T01:39:08.917Z,3.67
2023-03-13T01:41:39.058Z,3.67
2023-03-13T01:44:07.928Z,3.20
2023-03-13T01:46:39.895Z,3.90
2023-03-13T01:49:28.513Z,3.53
2023-03-13T01:52:24.829Z,3.90
2023-03-13T01:55:04.483Z,3.80
2023-03-13T01:57:36.253Z,3.37
2023-03-13T02:00:10.654Z,3.50
2023-03-13T02:02:45.263Z,3.73
2023-03-13T02:05:16.226Z,4.00
2023-03-13T02:07:48.169Z,3.43
2023-03-13T02:10:19.270Z,3.93
2023-03-13T02:12:49.246Z,4.43
2023-03-13T02:15:20.600Z,3.63
2023-03-13T02:17:51.265Z,4.00
2023-03-13T02:20:22.173Z,4.67
2023-03-13T02:23:01.391Z,5.03
2023-03-13T02:25:38.634Z,4.23
2023-03-13T02:28:12.022Z,4.67
2023-03-13T02:30:44.414Z,5.80
2023-03-13T02:33:14.382Z,4.90
2023-03-13T02:35:44.066Z,4.50
2023-03-13T02:38:19.140Z,4.60
2023-03-13T02:40:50.458Z,5.17
2023-03-13T02:43:25.460Z,5.83
2023-03-13T02:46:06.254Z,5.07
2023-03-13T02:48:39.447Z,4.97
2023-03-13T02:51:13.666Z,5.07
2023-03-13T02:53:44.295Z,5.33
2023-03-13T02:56:18.206Z,6.03
2023-03-13T02:58:50.358Z,7.00
2023-03-13T03:01:22.340Z,7.23
2023-03-13T03:03:51.231Z,6.77
2023-03-13T03:06:19.977Z,7.30
2023-03-13T03:08:49.258Z,5.87
2023-03-13T03:11:19.464Z,7.33
2023-03-13T03:13:52.905Z,6.43
2023-03-13T03:16:21.545Z,6.87
2023-03-13T03:18:50.046Z,6.33
2023-03-13T03:21:19.183Z,6.63
2023-03-13T03:23:47.834Z,6.33
2023-03-13T03:26:17.138Z,6.17
2023-03-13T03:28:47.090Z,6.17
2023-03-13T03:31:17.613Z,6.70
2023-03-13T03:33:47.086Z,6.10
2023-03-13T03:36:19.334Z,6.80
2023-03-13T03:38:49.249Z,6.97
2023-03-13T03:41:20.886Z,6.87
2023-03-13T03:43:50.810Z,7.77
2023-03-13T03:46:24.674Z,6.93
2023-03-13T03:48:53.328Z,7.00
2023-03-13T03:51:22.877Z,7.00
2023-03-13T03:53:51.661Z,6.20
2023-03-13T03:56:20.186Z,6.17
2023-03-13T03:58:55.243Z,7.07
2023-03-13T04:01:56.421Z,7.30
2023-03-13T04:04:27.690Z,5.67
2023-03-13T04:07:03.598Z,6.10
2023-03-13T04:09:33.515Z,5.30
2023-03-13T04:12:04.317Z,5.50
2023-03-13T04:14:38.825Z,5.13
2023-03-13T04:17:10.361Z,4.87
2023-03-13T04:19:39.569Z,4.83
2023-03-13T04:22:09.010Z,4.90
2023-03-13T04:24:39.153Z,5.13
2023-03-13T04:27:07.765Z,5.47
2023-03-13T04:29:38.796Z,5.30
2023-03-13T04:32:26.067Z,4.57
2023-03-13T04:35:04.940Z,4.60
2023-03-13T04:38:01.100Z,4.40
2023-03-13T04:41:05.181Z,5.17
2023-03-13T04:43:53.882Z,5.03
2023-03-13T04:46:40.269Z,4.10
2023-03-13T04:49:27.237Z,5.00
2023-03-13T04:52:08.204Z,4.07
2023-03-13T04:54:57.053Z,4.23
2023-03-13T04:57:44.142Z,4.73
2023-03-13T05:00:50.889Z,3.67
2023-03-13T05:03:35.308Z,3.60
2023-03-13T05:06:35.599Z,3.93
2023-03-13T05:09:21.359Z,4.30
2023-03-13T05:12:19.049Z,3.30
2023-03-13T05:14:56.465Z,3.57
2023-03-13T05:17:35.784Z,3.60
2023-03-13T05:20:29.865Z,3.23
2023-03-13T05:23:08.865Z,4.13
2023-03-13T05:25:55.930Z,2.77
2023-03-13T05:28:44.653Z,3.13
2023-03-13T05:31:39.360Z,3.40
2023-03-13T05:34:26.639Z,2.87
2023-03-13T05:37:16.664Z,2.83
2023-03-13T05:40:09.290Z,2.90
2023-03-13T05:42:40.611Z,2.93
2023-03-13T05:45:20.895Z,2.37
2023-03-13T05:47:49.446Z,3.37
2023-03-13T05:50:36.658Z,3.47
2023-03-13T05:53:25.092Z,3.10
2023-03-13T05:56:05.283Z,2.27
2023-03-13T05:58:56.787Z,2.90
2023-03-13T06:02:00.853Z,2.87
2023-03-13T06:04:35.641Z,3.03
2023-03-13T06:07:04.346Z,2.57
2023-03-13T06:09:34.378Z,2.37
2023-03-13T06:12:02.934Z,2.97
2023-03-13T06:14:32.157Z,2.57
2023-03-13T06:17:13.856Z,2.40
2023-03-13T06:19:42.358Z,2.57
2023-03-13T06:22:10.864Z,2.40
2023-03-13T06:24:41.225Z,2.20
2023-03-13T06:27:10.075Z,2.97
2023-03-13T06:29:38.533Z,1.90
2023-03-13T06:32:07.761Z,2.33
2023-03-13T06:34:36.587Z,2.33
2023-03-13T06:37:05.272Z,3.13
2023-03-13T06:39:34.075Z,2.97
2023-03-13T06:42:03.976Z,2.00
2023-03-13T06:44:32.511Z,2.70
2023-03-13T06:47:00.999Z,2.30
2023-03-13T06:49:29.529Z,2.40
2023-03-13T06:51:59.607Z,2.07
2023-03-13T06:54:28.746Z,2.40
2023-03-13T06:56:57.224Z,2.47
2023-03-13T06:59:27.198Z,2.80
2023-03-13T07:01:55.674Z,2.33
2023-03-13T07:04:24.104Z,1.83
2023-03-13T07:06:52.993Z,2.10
2023-03-13T07:09:21.483Z,2.53
2023-03-13T07:11:49.962Z,2.93
2023-03-13T07:14:18.533Z,2.50
2023-03-13T07:16:48.574Z,2.90
2023-03-13T07:19:17.706Z,2.63
2023-03-13T07:21:46.812Z,2.67
2023-03-13T07:24:15.297Z,2.00
2023-03-13T07:26:57.922Z,1.60
2023-03-13T07:29:32.327Z,2.90
2023-03-13T07:32:02.331Z,2.57
2023-03-13T07:34:30.978Z,2.83
2023-03-13T07:36:59.630Z,2.63
2023-03-13T07:39:28.116Z,2.60
2023-03-13T07:41:56.621Z,3.23
2023-03-13T07:44:25.144Z,2.60
2023-03-13T07:46:53.659Z,2.57
2023-03-13T07:49:23.592Z,3.77
2023-03-13T07:51:52.181Z,3.20
2023-03-13T07:54:20.677Z,2.90
2023-03-13T07:56:49.301Z,2.50
2023-03-13T07:59:17.897Z,2.93
2023-03-13T08:01:46.395Z,2.57
2023-03-13T08:04:15.475Z,3.07
2023-03-13T08:06:45.364Z,2.60
2023-03-13T08:09:13.868Z,3.10
2023-03-13T08:11:44.394Z,3.17
2023-03-13T08:14:13.086Z,3.27
2023-03-13T08:16:41.655Z,2.97
2023-03-13T08:19:11.344Z,3.40
2023-03-13T08:21:39.857Z,3.33
2023-03-13T08:24:12.901Z,3.60
2023-03-13T08:26:43.264Z,3.00
2023-03-13T08:29:13.558Z,3.20
2023-03-13T08:31:45.222Z,3.20
2023-03-13T08:34:14.146Z,3.13
2023-03-13T08:36:43.090Z,3.20
2023-03-13T08:39:15.191Z,2.90
2023-03-13T08:41:44.077Z,2.93
2023-03-13T08:44:14.491Z,2.50
2023-03-13T08:46:43.868Z,2.23
2023-03-13T08:49:13.443Z,2.53
2023-03-13T08:51:42.057Z,2.13
2023-03-13T08:54:12.025Z,1.83
2023-03-13T08:56:41.247Z,2.10
2023-03-13T08:59:09.846Z,1.63
2023-03-13T09:01:38.650Z,2.00
2023-03-13T09:04:07.840Z,2.70
2023-03-13T09:06:38.375Z,2.30
2023-03-13T09:09:08.424Z,2.57
2023-03-13T09:11:40.377Z,1.63
2023-03-13T09:14:10.891Z,1.60
2023-03-13T09:16:39.584Z,1.80
2023-03-13T09:19:08.175Z,1.60
2023-03-13T09:21:37.255Z,1.57
2023-03-13T09:24:06.026Z,1.40
2023-03-13T09:26:34.551Z,1.77
2023-03-13T09:29:04.485Z,2.30
2023-03-13T09:31:34.543Z,1.60
2023-03-13T09:34:03.245Z,1.47
2023-03-13T09:36:31.822Z,1.50
2023-03-13T09:39:01.131Z,1.80
2023-03-13T09:41:37.389Z,1.10
2023-03-13T09:44:15.876Z,1.67
2023-03-13T09:46:50.517Z,2.00
2023-03-13T09:49:30.803Z,1.00
2023-03-13T09:52:15.037Z,1.57
2023-03-13T09:54:47.954Z,1.27
2023-03-13T09:57:24.422Z,1.73
2023-03-13T09:59:58.860Z,1.33
2023-03-13T10:02:32.201Z,1.03
2023-03-13T10:05:13.704Z,2.13
2023-03-13T10:07:42.266Z,1.30
2023-03-13T10:10:17.965Z,1.80
2023-03-13T10:12:48.923Z,1.83
2023-03-13T10:15:37.995Z,1.40
2023-03-13T10:18:18.303Z,1.00
2023-03-13T10:20:49.695Z,1.40
2023-03-13T10:23:22.996Z,1.27
2023-03-13T10:25:51.553Z,1.00
2023-03-13T10:28:22.495Z,0.90
2023-03-13T10:30:55.636Z,1.43
2023-03-13T10:33:26.313Z,1.10
2023-03-13T10:36:07.250Z,0.77
2023-03-13T10:38:46.875Z,0.80
2023-03-13T10:41:27.569Z,1.23
2023-03-13T10:44:00.347Z,1.30
2023-03-13T10:46:32.985Z,1.00
2023-03-13T10:49:04.147Z,1.23
2023-03-13T10:51:38.710Z,0.90
2023-03-13T10:54:16.417Z,1.40
2023-03-13T10:56:44.981Z,1.07
2023-03-13T10:59:23.715Z,1.07
2023-03-13T11:01:54.941Z,1.70
2023-03-13T11:04:32.618Z,1.37
2023-03-13T11:07:04.675Z,1.03
2023-03-13T11:09:33.790Z,1.67
2023-03-13T11:12:08.322Z,0.90
2023-03-13T11:14:37.041Z,1.07
2023-03-13T11:17:25.734Z,1.30
2023-03-13T11:20:01.853Z,1.63
2023-03-13T11:22:41.706Z,1.10
2023-03-13T11:25:22.923Z,0.90
2023-03-13T11:28:00.911Z,0.97
2023-03-13T11:30:51.916Z,1.30
2023-03-13T11:33:34.859Z,1.00
2023-03-13T11:36:10.515Z,0.80
2023-03-13T11:38:42.249Z,1.10
2023-03-13T11:41:25.746Z,1.17
2023-03-13T11:44:16.366Z,1.00
2023-03-13T11:46:55.978Z,1.23
2023-03-13T11:49:54.352Z,1.00
2023-03-13T11:52:48.629Z,0.57
2023-03-13T11:55:33.948Z,1.20
2023-03-13T11:58:27.303Z,0.70
2023-03-13T12:01:00.821Z,1.20
2023-03-13T12:03:37.901Z,1.10
2023-03-13T12:06:27.542Z,0.73
2023-03-13T12:09:04.274Z,1.00
2023-03-13T12:11:37.988Z,0.60
2023-03-13T12:14:14.353Z,0.90
2023-03-13T12:16:45.821Z,1.20
2023-03-13T12:19:19.043Z,1.07
2023-03-13T12:21:53.762Z,1.00
2023-03-13T12:24:28.643Z,0.83
2023-03-13T12:27:02.532Z,1.20
2023-03-13T12:29:44.166Z,0.90
2023-03-13T12:32:18.023Z,1.23
2023-03-13T12:34:56.725Z,0.87
2023-03-13T12:37:34.189Z,1.47
2023-03-13T12:40:12.187Z,0.93
2023-03-13T12:42:50.783Z,1.37
2023-03-13T12:45:21.681Z,1.43
2023-03-13T12:48:25.078Z,1.50
2023-03-13T12:51:09.408Z,1.30
2023-03-13T12:54:13.878Z,1.47
2023-03-13T12:57:01.921Z,1.40
2023-03-13T12:59:34.209Z,1.43
2023-03-13T13:02:04.205Z,1.43
2023-03-13T13:04:35.147Z,1.83
2023-03-13T13:07:06.818Z,1.33
2023-03-13T13:09:39.685Z,1.43
2023-03-13T13:12:20.882Z,0.90
2023-03-13T13:15:17.131Z,1.30
2023-03-13T13:18:02.490Z,1.77
2023-03-13T13:20:38.709Z,1.60
2023-03-13T13:23:39.256Z,1.47
2023-03-13T13:26:47.701Z,1.40
2023-03-13T13:29:59.237Z,1.67
2023-03-13T13:32:50.948Z,1.50
2023-03-13T13:35:29.429Z,1.57
2023-03-13T13:38:36.977Z,1.43
2023-03-13T13:41:22.268Z,1.23
2023-03-13T13:44:11.706Z,1.60
2023-03-13T13:46:46.177Z,1.70
2023-03-13T13:49:21.369Z,2.50
2023-03-13T13:52:39.292Z,1.77
2023-03-13T13:55:41.201Z,1.83
2023-03-13T13:58:15.140Z,2.67
2023-03-13T14:00:47.562Z,1.90
2023-03-13T14:03:25.042Z,1.60
2023-03-13T14:05:57.775Z,2.03
2023-03-13T14:08:30.545Z,1.30
2023-03-13T14:11:10.987Z,1.53
2023-03-13T14:13:39.757Z,2.37
2023-03-13T14:16:24.534Z,2.03
2023-03-13T14:18:53.954Z,2.03
2023-03-13T14:21:25.181Z,2.57
2023-03-13T14:23:54.482Z,1.80
2023-03-13T14:26:24.806Z,2.00
2023-03-13T14:28:55.773Z,2.00
2023-03-13T14:31:30.224Z,1.33
2023-03-13T14:34:00.237Z,2.13
2023-03-13T14:36:30.726Z,2.43
2023-03-13T14:39:01.029Z,2.40
2023-03-13T14:41:32.248Z,1.90
2023-03-13T14:44:06.462Z,1.93
2023-03-13T14:46:37.109Z,2.10
2023-03-13T14:49:19.688Z,1.97
2023-03-13T14:51:58.994Z,1.20
2023-03-13T14:54:30.942Z,2.50
2023-03-13T14:57:16.945Z,1.87
2023-03-13T14:59:45.726Z,2.27
2023-03-13T15:02:18.553Z,1.83
2023-03-13T15:04:56.002Z,2.23
2023-03-13T15:07:27.594Z,2.27
2023-03-13T15:09:57.406Z,2.30
2023-03-13T15:12:25.944Z,3.83
2023-03-13T15:14:54.770Z,1.60
2023-03-13T15:17:24.587Z,1.67
2023-03-13T15:19:54.925Z,2.40
2023-03-13T15:22:28.680Z,1.97
2023-03-13T15:25:06.050Z,2.43
2023-03-13T15:27:35.668Z,2.03
2023-03-13T15:30:04.917Z,1.80
2023-03-13T15:32:36.811Z,2.10
2023-03-13T15:35:23.073Z,1.57
2023-03-13T15:37:53.097Z,2.00
2023-03-13T15:40:24.142Z,2.30
2023-03-13T15:42:52.788Z,1.97
2023-03-13T15:45:22.179Z,2.40
2023-03-13T15:47:50.728Z,2.83
2023-03-13T15:50:22.391Z,2.83
2023-03-13T15:52:52.292Z,2.53
2023-03-13T15:55:20.779Z,1.90
2023-03-13T15:57:51.340Z,2.23
2023-03-13T16:00:22.070Z,2.40
2023-03-13T16:02:50.938Z,2.37
2023-03-13T16:05:19.806Z,1.73
2023-03-13T16:07:48.405Z,3.07
2023-03-13T16:10:25.132Z,2.90
2023-03-13T16:12:54.199Z,2.60
2023-03-13T16:15:22.865Z,2.77
2023-03-13T16:17:51.728Z,3.00
2023-03-13T16:20:23.618Z,2.13
2023-03-13T16:22:53.694Z,1.77
2023-03-13T16:25:24.337Z,2.30
2023-03-13T16:27:53.503Z,1.83
2023-03-13T16:30:25.156Z,2.13
2023-03-13T16:32:53.752Z,2.43
2023-03-13T16:35:22.990Z,2.23
2023-03-13T16:37:52.016Z,2.30
2023-03-13T16:40:25.010Z,2.70
2023-03-13T16:42:53.625Z,2.73
2023-03-13T16:45:22.316Z,1.93
2023-03-13T16:47:51.110Z,2.60
2023-03-13T16:50:24.297Z,2.40
2023-03-13T16:52:53.838Z,2.70
2023-03-13T16:55:28.301Z,3.47
2023-03-13T16:57:57.240Z,2.40
2023-03-13T17:00:27.963Z,2.80
2023-03-13T17:02:57.590Z,2.40
2023-03-13T17:05:27.564Z,2.58
2023-03-13T17:07:56.124Z,2.60
2023-03-13T17:10:28.444Z,4.17
2023-03-13T17:12:57.217Z,3.07
2023-03-13T17:15:27.071Z,4.07
2023-03-13T17:17:56.307Z,3.25
2023-03-13T17:20:26.975Z,3.60
2023-03-13T17:22:56.572Z,2.37
2023-03-13T17:25:26.546Z,3.80
2023-03-13T17:27:55.522Z,3.20
2023-03-13T17:30:26.582Z,3.80
2023-03-13T17:32:55.176Z,4.73
2023-03-13T17:35:25.199Z,3.97
2023-03-13T17:37:53.783Z,3.37
2023-03-13T17:40:23.912Z,3.00
2023-03-13T17:42:53.963Z,3.60
2023-03-13T17:45:22.596Z,4.70
2023-03-13T17:47:51.090Z,5.87
2023-03-13T17:50:21.252Z,4.90
2023-03-13T17:52:49.885Z,4.67
2023-03-13T17:55:18.478Z,4.97
2023-03-13T17:57:48.396Z,3.93
2023-03-13T18:00:28.948Z,4.60
2023-03-13T18:02:57.484Z,4.60
2023-03-13T18:05:26.132Z,3.57
2023-03-13T18:07:56.858Z,3.60
2023-03-13T18:10:27.050Z,3.47
2023-03-13T18:12:56.007Z,4.33
2023-03-13T18:15:27.528Z,4.60
2023-03-13T18:17:56.001Z,5.90
2023-03-13T18:20:26.319Z,6.47
2023-03-13T18:22:59.248Z,5.47
2023-03-13T18:25:28.945Z,6.50
2023-03-13T18:27:57.645Z,6.30
2023-03-13T18:30:28.911Z,5.00
2023-03-13T18:32:57.476Z,4.03
2023-03-13T18:35:26.208Z,4.93
2023-03-13T18:37:54.671Z,4.70
2023-03-13T18:40:25.923Z,5.27
2023-03-13T18:42:54.429Z,6.10
2023-03-13T18:45:25.087Z,5.23
2023-03-13T18:47:55.097Z,5.00
2023-03-13T18:50:26.479Z,5.07
2023-03-13T18:52:55.844Z,4.70
2023-03-13T18:55:25.017Z,4.00
2023-03-13T18:57:53.882Z,4.60
2023-03-13T19:00:26.480Z,6.27
2023-03-13T19:02:56.410Z,5.03
2023-03-13T19:05:24.991Z,4.83
2023-03-13T19:07:53.742Z,5.07
2023-03-13T19:10:25.105Z,4.90
2023-03-13T19:12:55.263Z,4.40
2023-03-13T19:15:26.851Z,4.87
2023-03-13T19:17:57.047Z,4.50
2023-03-13T19:20:25.602Z,7.03
2023-03-13T19:22:56.232Z,4.97
2023-03-13T19:25:25.096Z,4.47
2023-03-13T19:27:53.578Z,5.17
2023-03-13T19:30:24.497Z,5.20
2023-03-13T19:32:53.255Z,5.03
2023-03-13T19:35:23.321Z,5.20
2023-03-13T19:37:51.925Z,5.60
2023-03-13T19:40:22.810Z,7.10
2023-03-13T19:42:51.326Z,3.93
2023-03-13T19:45:21.755Z,3.90
2023-03-13T19:47:50.362Z,4.43
2023-03-13T19:50:20.934Z,3.90
2023-03-13T19:52:51.023Z,3.80
2023-03-13T19:55:19.672Z,4.27
2023-03-13T19:57:48.130Z,4.90
2023-03-13T20:00:21.307Z,5.00
2023-03-13T20:02:49.905Z,5.77
2023-03-13T20:05:18.794Z,4.73
2023-03-13T20:07:48.205Z,5.70
2023-03-13T20:10:18.076Z,5.53
2023-03-13T20:12:46.612Z,5.53
2023-03-13T20:15:15.127Z,6.37
2023-03-13T20:17:43.587Z,5.77
2023-03-13T20:20:13.713Z,4.30
2023-03-13T20:22:42.299Z,4.73
2023-03-13T20:25:11.640Z,4.07
2023-03-13T20:27:41.437Z,4.53
2023-03-13T20:30:11.314Z,4.77
2023-03-13T20:32:52.938Z,4.70
2023-03-13T20:35:28.845Z,4.13
2023-03-13T20:37:59.631Z,5.53
2023-03-13T20:40:28.171Z,4.13
2023-03-13T20:42:59.479Z,5.77
2023-03-13T20:45:28.700Z,5.43
2023-03-13T20:47:57.488Z,4.57
2023-03-13T20:50:26.083Z,4.50
2023-03-13T20:52:55.637Z,4.43
2023-03-13T20:55:24.220Z,3.80
2023-03-13T20:57:52.673Z,5.03
2023-03-13T21:00:23.332Z,6.13
2023-03-13T21:02:53.726Z,4.03
2023-03-13T21:05:22.209Z,5.27
2023-03-13T21:07:50.674Z,4.63
2023-03-13T21:10:19.386Z,4.53
2023-03-13T21:12:47.867Z,4.57
2023-03-13T21:15:16.363Z,4.37
2023-03-13T21:17:46.267Z,3.77
2023-03-13T21:20:15.368Z,4.90
2023-03-13T21:22:44.965Z,4.83
2023-03-13T21:25:13.770Z,3.80
2023-03-13T21:27:43.784Z,3.57
2023-03-13T21:30:14.950Z,3.97
2023-03-13T21:32:43.449Z,4.40
2023-03-13T21:35:13.887Z,3.60
2023-03-13T21:37:42.812Z,4.20
2023-03-13T21:40:12.836Z,3.50
2023-03-13T21:42:41.590Z,3.87
2023-03-13T21:45:11.750Z,3.87
2023-03-13T21:47:40.406Z,3.30
2023-03-13T21:50:10.998Z,4.57
2023-03-13T21:52:42.277Z,3.33
2023-03-13T21:55:13.249Z,5.87
2023-03-13T21:57:42.050Z,4.93
2023-03-13T22:00:14.005Z,4.13
2023-03-13T22:02:43.255Z,5.23
2023-03-13T22:05:12.452Z,3.83
2023-03-13T22:07:42.428Z,3.37
2023-03-13T22:10:12.069Z,3.77
2023-03-13T22:12:40.585Z,4.00
2023-03-13T22:15:10.484Z,3.85
2023-03-13T22:17:39.062Z,3.20
2023-03-13T22:20:09.953Z,4.20
2023-03-13T22:22:38.559Z,4.03
2023-03-13T22:25:09.342Z,3.87
2023-03-13T22:27:37.883Z,4.50
2023-03-13T22:30:07.712Z,3.53
2023-03-13T22:32:36.239Z,4.23
2023-03-13T22:35:05.206Z,3.37
2023-03-13T22:37:33.649Z,3.60
2023-03-13T22:40:02.084Z,3.93
2023-03-13T22:42:31.926Z,3.53
2023-03-13T22:45:00.361Z,3.17
2023-03-13T22:47:28.868Z,3.73
2023-03-13T22:49:57.354Z,3.57
2023-03-13T22:52:30.530Z,3.33
2023-03-13T22:54:59.242Z,3.23
2023-03-13T22:57:29.006Z,2.93
2023-03-13T23:00:00.227Z,3.20
2023-03-13T23:02:29.308Z,2.47
2023-03-13T23:05:00.295Z,3.07
2023-03-13T23:07:30.522Z,2.83
2023-03-13T23:09:59.680Z,2.77
2023-03-13T23:12:30.671Z,3.50
2023-03-13T23:15:02.001Z,3.10
2023-03-13T23:17:32.927Z,2.87
2023-03-13T23:20:02.061Z,3.17
2023-03-13T23:22:32.878Z,2.87
2023-03-13T23:25:01.750Z,2.87
2023-03-13T23:27:30.214Z,2.20
2023-03-13T23:30:04.079Z,2.67
2023-03-13T23:32:36.017Z,2.77
2023-03-13T23:35:04.900Z,3.17
2023-03-13T23:37:34.023Z,2.70
2023-03-13T23:40:02.938Z,2.20
2023-03-13T23:42:31.797Z,2.70
2023-03-13T23:45:02.347Z,3.83
2023-03-13T23:47:30.985Z,3.53
2023-03-13T23:49:59.484Z,3.40
2023-03-13T23:52:28.025Z,3.00
2023-03-13T23:54:56.495Z,2.87
2023-03-13T23:57:24.941Z,3.50
2023-03-13T23:59:53.361Z,3.27
